sensor_id;sensor_type;location;lat;lon;timestamp;P1;durP1;ratioP1;P2;durP2;ratioP2
3274;SDS011;1649;53.672;10.064;2022-07-17T00:01:51;15.23;;;3.00;;
3274;SDS011;1649;53.672;10.064;2022-07-17T00:04:17;7.70;;;3.03;;
3274;SDS011;1649;53.672;10.064;2022-07-17T00:06:42;9.63;;;2.93;;
3274;SDS011;1649;53.672;10.064;2022-07-17T00:09:08;6.50;;;2.67;;
3274;SDS011;1649;53.672;10.064;2022-07-17T00:11:34;6.13;;;3.03;;
3274;SDS011;1649;53.672;10.064;2022-07-17T00:13:59;6.80;;;3.23;;
3274;SDS011;1649;53.672;10.064;2022-07-17T00:16:25;8.40;;;3.17;;
3274;SDS011;1649;53.672;10.064;2022-07-17T00:18:50;7.70;;;3.03;;
3274;SDS011;1649;53.672;10.064;2022-07-17T00:21:16;7.63;;;2.77;;
3274;SDS011;1649;53.672;10.064;2022-07-17T00:23:42;13.73;;;3.80;;
3274;SDS011;1649;53.672;10.064;2022-07-17T00:26:07;8.43;;;3.33;;
3274;SDS011;1649;53.672;10.064;2022-07-17T00:28:33;9.20;;;3.17;;
3274;SDS011;1649;53.672;10.064;2022-07-17T00:30:59;10.10;;;3.63;;
3274;SDS011;1649;53.672;10.064;2022-07-17T00:33:24;10.43;;;3.43;;
3274;SDS011;1649;53.672;10.064;2022-07-17T00:35:50;8.23;;;3.30;;
3274;SDS011;1649;53.672;10.064;2022-07-17T00:38:15;10.77;;;3.03;;
3274;SDS011;1649;53.672;10.064;2022-07-17T00:40:41;7.50;;;2.90;;
3274;SDS011;1649;53.672;10.064;2022-07-17T00:43:07;7.83;;;3.20;;
3274;SDS011;1649;53.672;10.064;2022-07-17T00:45:32;7.23;;;2.73;;
3274;SDS011;1649;53.672;10.064;2022-07-17T00:47:58;7.23;;;2.87;;
3274;SDS011;1649;53.672;10.064;2022-07-17T00:50:27;8.33;;;3.10;;
3274;SDS011;1649;53.672;10.064;2022-07-17T00:52:56;8.00;;;3.10;;
3274;SDS011;1649;53.672;10.064;2022-07-17T00:55:22;8.77;;;3.17;;
3274;SDS011;1649;53.672;10.064;2022-07-17T00:57:48;7.30;;;3.10;;
3274;SDS011;1649;53.672;10.064;2022-07-17T01:00:15;6.73;;;3.00;;
3274;SDS011;1649;53.672;10.064;2022-07-17T01:02:44;10.00;;;2.80;;
3274;SDS011;1649;53.672;10.064;2022-07-17T01:05:15;9.23;;;3.13;;
3274;SDS011;1649;53.672;10.064;2022-07-17T01:07:42;8.80;;;3.37;;
3274;SDS011;1649;53.672;10.064;2022-07-17T01:10:08;7.97;;;3.27;;
3274;SDS011;1649;53.672;10.064;2022-07-17T01:12:34;5.63;;;2.50;;
3274;SDS011;1649;53.672;10.064;2022-07-17T01:15:00;7.40;;;3.17;;
3274;SDS011;1649;53.672;10.064;2022-07-17T01:17:26;7.20;;;3.23;;
3274;SDS011;1649;53.672;10.064;2022-07-17T01:19:52;5.80;;;3.10;;
3274;SDS011;1649;53.672;10.064;2022-07-17T01:22:18;7.33;;;3.07;;
3274;SDS011;1649;53.672;10.064;2022-07-17T01:24:44;7.70;;;2.97;;
3274;SDS011;1649;53.672;10.064;2022-07-17T01:27:10;6.97;;;2.70;;
3274;SDS011;1649;53.672;10.064;2022-07-17T01:29:36;7.93;;;2.53;;
3274;SDS011;1649;53.672;10.064;2022-07-17T01:32:02;6.60;;;3.17;;
3274;SDS011;1649;53.672;10.064;2022-07-17T01:34:28;7.67;;;3.27;;
3274;SDS011;1649;53.672;10.064;2022-07-17T01:36:54;5.97;;;3.27;;
3274;SDS011;1649;53.672;10.064;2022-07-17T01:39:19;9.23;;;3.70;;
3274;SDS011;1649;53.672;10.064;2022-07-17T01:42:05;6.70;;;3.30;;
3274;SDS011;1649;53.672;10.064;2022-07-17T01:44:30;10.07;;;3.43;;
3274;SDS011;1649;53.672;10.064;2022-07-17T01:46:55;8.87;;;3.40;;
3274;SDS011;1649;53.672;10.064;2022-07-17T01:49:21;9.20;;;3.60;;
3274;SDS011;1649;53.672;10.064;2022-07-17T01:51:46;11.20;;;3.70;;
3274;SDS011;1649;53.672;10.064;2022-07-17T01:54:13;7.43;;;3.50;;
3274;SDS011;1649;53.672;10.064;2022-07-17T01:56:38;7.33;;;3.00;;
3274;SDS011;1649;53.672;10.064;2022-07-17T01:59:04;7.53;;;3.47;;
3274;SDS011;1649;53.672;10.064;2022-07-17T02:01:29;11.90;;;3.60;;
3274;SDS011;1649;53.672;10.064;2022-07-17T02:03:55;7.57;;;3.60;;
3274;SDS011;1649;53.672;10.064;2022-07-17T02:06:20;7.07;;;3.50;;
3274;SDS011;1649;53.672;10.064;2022-07-17T02:08:46;12.00;;;3.87;;
3274;SDS011;1649;53.672;10.064;2022-07-17T02:11:14;10.23;;;3.90;;
3274;SDS011;1649;53.672;10.064;2022-07-17T02:13:40;8.83;;;3.50;;
3274;SDS011;1649;53.672;10.064;2022-07-17T02:16:06;7.97;;;3.20;;
3274;SDS011;1649;53.672;10.064;2022-07-17T02:18:31;11.20;;;3.57;;
3274;SDS011;1649;53.672;10.064;2022-07-17T02:20:57;6.90;;;3.50;;
3274;SDS011;1649;53.672;10.064;2022-07-17T02:23:22;11.83;;;3.47;;
3274;SDS011;1649;53.672;10.064;2022-07-17T02:25:48;8.37;;;3.70;;
3274;SDS011;1649;53.672;10.064;2022-07-17T02:28:13;14.07;;;3.80;;
3274;SDS011;1649;53.672;10.064;2022-07-17T02:30:39;12.03;;;3.83;;
3274;SDS011;1649;53.672;10.064;2022-07-17T02:33:04;9.13;;;3.80;;
3274;SDS011;1649;53.672;10.064;2022-07-17T02:35:31;10.93;;;3.90;;
3274;SDS011;1649;53.672;10.064;2022-07-17T02:37:57;8.50;;;3.37;;
3274;SDS011;1649;53.672;10.064;2022-07-17T02:40:23;10.13;;;3.77;;
3274;SDS011;1649;53.672;10.064;2022-07-17T02:42:48;8.50;;;3.80;;
3274;SDS011;1649;53.672;10.064;2022-07-17T02:45:14;7.53;;;3.13;;
3274;SDS011;1649;53.672;10.064;2022-07-17T02:47:40;9.93;;;3.63;;
3274;SDS011;1649;53.672;10.064;2022-07-17T02:50:07;11.23;;;3.20;;
3274;SDS011;1649;53.672;10.064;2022-07-17T02:52:33;10.03;;;3.97;;
3274;SDS011;1649;53.672;10.064;2022-07-17T02:54:59;12.50;;;3.57;;
3274;SDS011;1649;53.672;10.064;2022-07-17T02:57:25;10.17;;;3.93;;
3274;SDS011;1649;53.672;10.064;2022-07-17T02:59:50;10.77;;;3.77;;
3274;SDS011;1649;53.672;10.064;2022-07-17T03:02:16;8.40;;;4.50;;
3274;SDS011;1649;53.672;10.064;2022-07-17T03:04:41;9.13;;;3.17;;
3274;SDS011;1649;53.672;10.064;2022-07-17T03:07:07;7.87;;;3.43;;
3274;SDS011;1649;53.672;10.064;2022-07-17T03:09:32;9.10;;;3.93;;
3274;SDS011;1649;53.672;10.064;2022-07-17T03:11:58;9.97;;;3.60;;
3274;SDS011;1649;53.672;10.064;2022-07-17T03:14:23;8.20;;;3.67;;
3274;SDS011;1649;53.672;10.064;2022-07-17T03:16:49;8.10;;;3.80;;
3274;SDS011;1649;53.672;10.064;2022-07-17T03:19:15;7.87;;;3.57;;
3274;SDS011;1649;53.672;10.064;2022-07-17T03:21:40;12.23;;;3.83;;
3274;SDS011;1649;53.672;10.064;2022-07-17T03:24:05;9.00;;;3.50;;
3274;SDS011;1649;53.672;10.064;2022-07-17T03:26:32;7.90;;;3.57;;
3274;SDS011;1649;53.672;10.064;2022-07-17T03:28:57;8.97;;;3.57;;
3274;SDS011;1649;53.672;10.064;2022-07-17T03:31:23;13.83;;;3.60;;
3274;SDS011;1649;53.672;10.064;2022-07-17T03:33:48;9.33;;;4.23;;
3274;SDS011;1649;53.672;10.064;2022-07-17T03:36:14;13.90;;;3.60;;
3274;SDS011;1649;53.672;10.064;2022-07-17T03:38:39;10.27;;;3.70;;
3274;SDS011;1649;53.672;10.064;2022-07-17T03:41:05;10.53;;;3.30;;
3274;SDS011;1649;53.672;10.064;2022-07-17T03:43:30;7.80;;;2.97;;
3274;SDS011;1649;53.672;10.064;2022-07-17T03:45:56;11.87;;;3.47;;
3274;SDS011;1649;53.672;10.064;2022-07-17T03:48:22;7.63;;;3.20;;
3274;SDS011;1649;53.672;10.064;2022-07-17T03:50:47;9.60;;;3.10;;
3274;SDS011;1649;53.672;10.064;2022-07-17T03:53:13;9.70;;;3.87;;
3274;SDS011;1649;53.672;10.064;2022-07-17T03:55:38;11.30;;;3.50;;
3274;SDS011;1649;53.672;10.064;2022-07-17T03:58:04;6.97;;;3.13;;
3274;SDS011;1649;53.672;10.064;2022-07-17T04:00:29;8.50;;;3.50;;
3274;SDS011;1649;53.672;10.064;2022-07-17T04:02:55;8.63;;;3.17;;
3274;SDS011;1649;53.672;10.064;2022-07-17T04:05:20;7.23;;;2.87;;
3274;SDS011;1649;53.672;10.064;2022-07-17T04:07:46;5.80;;;2.63;;
3274;SDS011;1649;53.672;10.064;2022-07-17T04:10:12;8.97;;;3.00;;
3274;SDS011;1649;53.672;10.064;2022-07-17T04:12:39;10.03;;;2.67;;
3274;SDS011;1649;53.672;10.064;2022-07-17T04:15:05;7.93;;;2.90;;
3274;SDS011;1649;53.672;10.064;2022-07-17T04:17:32;8.57;;;3.30;;
3274;SDS011;1649;53.672;10.064;2022-07-17T04:19:58;9.53;;;3.50;;
3274;SDS011;1649;53.672;10.064;2022-07-17T04:22:23;12.70;;;3.53;;
3274;SDS011;1649;53.672;10.064;2022-07-17T04:24:49;10.33;;;3.30;;
3274;SDS011;1649;53.672;10.064;2022-07-17T04:27:16;9.83;;;3.43;;
3274;SDS011;1649;53.672;10.064;2022-07-17T04:29:42;7.27;;;2.80;;
3274;SDS011;1649;53.672;10.064;2022-07-17T04:32:08;6.30;;;2.90;;
3274;SDS011;1649;53.672;10.064;2022-07-17T04:34:34;6.93;;;3.10;;
3274;SDS011;1649;53.672;10.064;2022-07-17T04:37:00;7.83;;;2.90;;
3274;SDS011;1649;53.672;10.064;2022-07-17T04:39:27;8.00;;;3.43;;
3274;SDS011;1649;53.672;10.064;2022-07-17T04:41:53;8.37;;;3.20;;
3274;SDS011;1649;53.672;10.064;2022-07-17T04:44:18;9.80;;;3.20;;
3274;SDS011;1649;53.672;10.064;2022-07-17T04:46:44;22.30;;;3.47;;
3274;SDS011;1649;53.672;10.064;2022-07-17T04:49:10;7.50;;;3.00;;
3274;SDS011;1649;53.672;10.064;2022-07-17T04:51:36;8.50;;;3.00;;
3274;SDS011;1649;53.672;10.064;2022-07-17T04:54:01;10.50;;;3.00;;
3274;SDS011;1649;53.672;10.064;2022-07-17T04:56:27;9.00;;;2.87;;
3274;SDS011;1649;53.672;10.064;2022-07-17T04:58:52;11.57;;;3.17;;
3274;SDS011;1649;53.672;10.064;2022-07-17T05:01:18;5.67;;;2.70;;
3274;SDS011;1649;53.672;10.064;2022-07-17T05:03:43;9.00;;;3.00;;
3274;SDS011;1649;53.672;10.064;2022-07-17T05:06:09;9.47;;;3.00;;
3274;SDS011;1649;53.672;10.064;2022-07-17T05:08:35;9.63;;;3.07;;
3274;SDS011;1649;53.672;10.064;2022-07-17T05:11:00;7.97;;;3.20;;
3274;SDS011;1649;53.672;10.064;2022-07-17T05:13:26;9.70;;;3.17;;
3274;SDS011;1649;53.672;10.064;2022-07-17T05:15:51;6.60;;;2.90;;
3274;SDS011;1649;53.672;10.064;2022-07-17T05:18:17;7.43;;;2.70;;
3274;SDS011;1649;53.672;10.064;2022-07-17T05:20:42;6.90;;;2.80;;
3274;SDS011;1649;53.672;10.064;2022-07-17T05:23:08;6.33;;;3.00;;
3274;SDS011;1649;53.672;10.064;2022-07-17T05:25:33;8.17;;;2.90;;
3274;SDS011;1649;53.672;10.064;2022-07-17T05:27:59;6.10;;;2.53;;
3274;SDS011;1649;53.672;10.064;2022-07-17T05:30:25;8.83;;;2.93;;
3274;SDS011;1649;53.672;10.064;2022-07-17T05:32:50;10.23;;;2.87;;
3274;SDS011;1649;53.672;10.064;2022-07-17T05:35:16;8.80;;;2.87;;
3274;SDS011;1649;53.672;10.064;2022-07-17T05:37:41;7.50;;;2.80;;
3274;SDS011;1649;53.672;10.064;2022-07-17T05:40:07;12.23;;;2.90;;
3274;SDS011;1649;53.672;10.064;2022-07-17T05:42:33;8.30;;;2.60;;
3274;SDS011;1649;53.672;10.064;2022-07-17T05:44:58;8.77;;;2.60;;
3274;SDS011;1649;53.672;10.064;2022-07-17T05:47:24;10.30;;;2.83;;
3274;SDS011;1649;53.672;10.064;2022-07-17T05:49:50;8.00;;;2.83;;
3274;SDS011;1649;53.672;10.064;2022-07-17T05:52:15;10.03;;;2.63;;
3274;SDS011;1649;53.672;10.064;2022-07-17T05:54:41;7.43;;;2.50;;
3274;SDS011;1649;53.672;10.064;2022-07-17T05:57:07;9.47;;;2.83;;
3274;SDS011;1649;53.672;10.064;2022-07-17T05:59:33;5.53;;;2.50;;
3274;SDS011;1649;53.672;10.064;2022-07-17T06:01:59;6.90;;;2.50;;
3274;SDS011;1649;53.672;10.064;2022-07-17T06:04:24;5.43;;;2.10;;
3274;SDS011;1649;53.672;10.064;2022-07-17T06:06:50;6.50;;;2.40;;
3274;SDS011;1649;53.672;10.064;2022-07-17T06:09:15;9.30;;;3.10;;
3274;SDS011;1649;53.672;10.064;2022-07-17T06:11:41;10.60;;;3.30;;
3274;SDS011;1649;53.672;10.064;2022-07-17T06:14:06;6.93;;;2.37;;
3274;SDS011;1649;53.672;10.064;2022-07-17T06:16:32;6.87;;;2.50;;
3274;SDS011;1649;53.672;10.064;2022-07-17T06:18:58;9.67;;;3.10;;
3274;SDS011;1649;53.672;10.064;2022-07-17T06:21:23;9.77;;;3.10;;
3274;SDS011;1649;53.672;10.064;2022-07-17T06:23:49;12.70;;;2.60;;
3274;SDS011;1649;53.672;10.064;2022-07-17T06:26:14;9.83;;;2.60;;
3274;SDS011;1649;53.672;10.064;2022-07-17T06:28:40;6.77;;;2.37;;
3274;SDS011;1649;53.672;10.064;2022-07-17T06:31:05;6.97;;;2.17;;
3274;SDS011;1649;53.672;10.064;2022-07-17T06:33:31;6.60;;;2.33;;
3274;SDS011;1649;53.672;10.064;2022-07-17T06:35:56;7.60;;;2.80;;
3274;SDS011;1649;53.672;10.064;2022-07-17T06:38:22;9.30;;;2.43;;
3274;SDS011;1649;53.672;10.064;2022-07-17T06:40:49;5.67;;;2.00;;
3274;SDS011;1649;53.672;10.064;2022-07-17T06:43:14;5.77;;;1.90;;
3274;SDS011;1649;53.672;10.064;2022-07-17T06:45:40;5.83;;;1.90;;
3274;SDS011;1649;53.672;10.064;2022-07-17T06:48:05;7.67;;;2.30;;
3274;SDS011;1649;53.672;10.064;2022-07-17T06:50:31;9.50;;;2.80;;
3274;SDS011;1649;53.672;10.064;2022-07-17T06:52:56;7.33;;;2.40;;
3274;SDS011;1649;53.672;10.064;2022-07-17T06:55:23;6.50;;;2.13;;
3274;SDS011;1649;53.672;10.064;2022-07-17T06:57:48;4.67;;;1.90;;
3274;SDS011;1649;53.672;10.064;2022-07-17T07:00:14;8.27;;;2.07;;
3274;SDS011;1649;53.672;10.064;2022-07-17T07:02:40;5.80;;;2.10;;
3274;SDS011;1649;53.672;10.064;2022-07-17T07:05:05;7.37;;;2.33;;
3274;SDS011;1649;53.672;10.064;2022-07-17T07:07:31;8.43;;;2.37;;
3274;SDS011;1649;53.672;10.064;2022-07-17T07:09:57;5.97;;;2.20;;
3274;SDS011;1649;53.672;10.064;2022-07-17T07:12:22;7.30;;;2.03;;
3274;SDS011;1649;53.672;10.064;2022-07-17T07:14:47;6.80;;;2.40;;
3274;SDS011;1649;53.672;10.064;2022-07-17T07:17:13;5.93;;;2.40;;
3274;SDS011;1649;53.672;10.064;2022-07-17T07:19:39;7.53;;;2.53;;
3274;SDS011;1649;53.672;10.064;2022-07-17T07:22:04;7.77;;;2.30;;
3274;SDS011;1649;53.672;10.064;2022-07-17T07:24:30;7.67;;;2.20;;
3274;SDS011;1649;53.672;10.064;2022-07-17T07:26:55;6.10;;;2.00;;
3274;SDS011;1649;53.672;10.064;2022-07-17T07:29:21;6.03;;;1.70;;
3274;SDS011;1649;53.672;10.064;2022-07-17T07:31:46;6.40;;;1.80;;
3274;SDS011;1649;53.672;10.064;2022-07-17T07:34:12;7.40;;;2.07;;
3274;SDS011;1649;53.672;10.064;2022-07-17T07:36:38;8.40;;;1.80;;
3274;SDS011;1649;53.672;10.064;2022-07-17T07:39:04;6.50;;;1.77;;
3274;SDS011;1649;53.672;10.064;2022-07-17T07:41:29;6.10;;;1.50;;
3274;SDS011;1649;53.672;10.064;2022-07-17T07:43:55;7.57;;;2.00;;
3274;SDS011;1649;53.672;10.064;2022-07-17T07:46:20;4.70;;;1.77;;
3274;SDS011;1649;53.672;10.064;2022-07-17T07:48:46;6.50;;;1.80;;
3274;SDS011;1649;53.672;10.064;2022-07-17T07:51:12;5.10;;;1.87;;
3274;SDS011;1649;53.672;10.064;2022-07-17T07:53:37;6.87;;;1.93;;
3274;SDS011;1649;53.672;10.064;2022-07-17T07:56:03;5.57;;;1.63;;
3274;SDS011;1649;53.672;10.064;2022-07-17T07:58:29;6.33;;;1.73;;
3274;SDS011;1649;53.672;10.064;2022-07-17T08:00:54;5.10;;;1.77;;
3274;SDS011;1649;53.672;10.064;2022-07-17T08:03:20;5.57;;;1.90;;
3274;SDS011;1649;53.672;10.064;2022-07-17T08:05:45;5.57;;;1.80;;
3274;SDS011;1649;53.672;10.064;2022-07-17T08:08:11;7.50;;;2.40;;
3274;SDS011;1649;53.672;10.064;2022-07-17T08:10:36;4.97;;;1.50;;
3274;SDS011;1649;53.672;10.064;2022-07-17T08:13:02;6.90;;;1.80;;
3274;SDS011;1649;53.672;10.064;2022-07-17T08:15:27;5.30;;;1.50;;
3274;SDS011;1649;53.672;10.064;2022-07-17T08:17:53;5.03;;;1.83;;
3274;SDS011;1649;53.672;10.064;2022-07-17T08:20:19;6.23;;;2.07;;
3274;SDS011;1649;53.672;10.064;2022-07-17T08:25:14;5.47;;;1.90;;
3274;SDS011;1649;53.672;10.064;2022-07-17T08:27:41;7.23;;;2.00;;
3274;SDS011;1649;53.672;10.064;2022-07-17T08:30:09;5.70;;;1.90;;
3274;SDS011;1649;53.672;10.064;2022-07-17T08:32:36;8.50;;;2.00;;
3274;SDS011;1649;53.672;10.064;2022-07-17T08:35:02;5.33;;;1.30;;
3274;SDS011;1649;53.672;10.064;2022-07-17T08:37:28;6.40;;;1.80;;
3274;SDS011;1649;53.672;10.064;2022-07-17T08:39:54;5.90;;;1.87;;
3274;SDS011;1649;53.672;10.064;2022-07-17T08:42:20;6.33;;;1.70;;
3274;SDS011;1649;53.672;10.064;2022-07-17T08:44:46;3.97;;;1.57;;
3274;SDS011;1649;53.672;10.064;2022-07-17T08:47:12;4.60;;;1.33;;
3274;SDS011;1649;53.672;10.064;2022-07-17T08:49:45;4.60;;;1.50;;
3274;SDS011;1649;53.672;10.064;2022-07-17T08:52:13;6.90;;;1.57;;
3274;SDS011;1649;53.672;10.064;2022-07-17T08:54:39;5.70;;;1.73;;
3274;SDS011;1649;53.672;10.064;2022-07-17T08:57:05;7.13;;;1.70;;
3274;SDS011;1649;53.672;10.064;2022-07-17T08:59:31;8.80;;;1.90;;
3274;SDS011;1649;53.672;10.064;2022-07-17T09:01:59;7.27;;;1.70;;
3274;SDS011;1649;53.672;10.064;2022-07-17T09:04:25;5.43;;;1.47;;
3274;SDS011;1649;53.672;10.064;2022-07-17T09:07:01;5.63;;;1.57;;
3274;SDS011;1649;53.672;10.064;2022-07-17T09:09:28;4.30;;;1.20;;
3274;SDS011;1649;53.672;10.064;2022-07-17T09:11:55;5.10;;;2.10;;
3274;SDS011;1649;53.672;10.064;2022-07-17T09:14:23;6.00;;;1.63;;
3274;SDS011;1649;53.672;10.064;2022-07-17T09:17:00;4.20;;;1.37;;
3274;SDS011;1649;53.672;10.064;2022-07-17T09:22:18;4.77;;;1.40;;
3274;SDS011;1649;53.672;10.064;2022-07-17T09:27:17;4.43;;;1.47;;
3274;SDS011;1649;53.672;10.064;2022-07-17T09:32:24;4.43;;;1.30;;
3274;SDS011;1649;53.672;10.064;2022-07-17T09:34:52;6.03;;;1.70;;
3274;SDS011;1649;53.672;10.064;2022-07-17T09:37:21;3.87;;;1.60;;
3274;SDS011;1649;53.672;10.064;2022-07-17T09:39:49;5.40;;;1.43;;
3274;SDS011;1649;53.672;10.064;2022-07-17T09:42:24;4.93;;;1.27;;
3274;SDS011;1649;53.672;10.064;2022-07-17T09:44:54;3.77;;;1.27;;
3274;SDS011;1649;53.672;10.064;2022-07-17T09:47:31;5.03;;;1.50;;
3274;SDS011;1649;53.672;10.064;2022-07-17T09:49:59;4.80;;;1.30;;
3274;SDS011;1649;53.672;10.064;2022-07-17T09:52:27;4.67;;;1.37;;
3274;SDS011;1649;53.672;10.064;2022-07-17T09:54:57;5.57;;;1.47;;
3274;SDS011;1649;53.672;10.064;2022-07-17T09:57:27;4.83;;;1.47;;
3274;SDS011;1649;53.672;10.064;2022-07-17T09:59:55;3.93;;;1.17;;
3274;SDS011;1649;53.672;10.064;2022-07-17T10:02:24;5.60;;;1.30;;
3274;SDS011;1649;53.672;10.064;2022-07-17T10:04:50;5.10;;;1.40;;
3274;SDS011;1649;53.672;10.064;2022-07-17T10:07:17;7.73;;;1.50;;
3274;SDS011;1649;53.672;10.064;2022-07-17T10:09:42;4.13;;;1.40;;
3274;SDS011;1649;53.672;10.064;2022-07-17T10:12:08;4.80;;;1.40;;
3274;SDS011;1649;53.672;10.064;2022-07-17T10:14:34;7.27;;;1.50;;
3274;SDS011;1649;53.672;10.064;2022-07-17T10:17:10;4.20;;;1.40;;
3274;SDS011;1649;53.672;10.064;2022-07-17T10:19:49;7.07;;;1.40;;
3274;SDS011;1649;53.672;10.064;2022-07-17T10:22:19;5.63;;;1.43;;
3274;SDS011;1649;53.672;10.064;2022-07-17T10:24:46;5.77;;;1.63;;
3274;SDS011;1649;53.672;10.064;2022-07-17T10:27:27;5.53;;;1.40;;
3274;SDS011;1649;53.672;10.064;2022-07-17T10:30:07;7.80;;;1.60;;
3274;SDS011;1649;53.672;10.064;2022-07-17T10:32:35;6.83;;;1.50;;
3274;SDS011;1649;53.672;10.064;2022-07-17T10:35:02;8.20;;;1.80;;
3274;SDS011;1649;53.672;10.064;2022-07-17T10:37:38;5.83;;;1.50;;
3274;SDS011;1649;53.672;10.064;2022-07-17T10:42:45;5.20;;;1.53;;
3274;SDS011;1649;53.672;10.064;2022-07-17T10:45:21;4.37;;;1.60;;
3274;SDS011;1649;53.672;10.064;2022-07-17T10:48:10;3.97;;;1.30;;
3274;SDS011;1649;53.672;10.064;2022-07-17T10:50:39;3.73;;;1.20;;
3274;SDS011;1649;53.672;10.064;2022-07-17T10:55:37;6.00;;;1.40;;
3274;SDS011;1649;53.672;10.064;2022-07-17T11:01:05;4.03;;;1.50;;
3274;SDS011;1649;53.672;10.064;2022-07-17T11:03:39;4.80;;;1.37;;
3274;SDS011;1649;53.672;10.064;2022-07-17T11:06:14;6.37;;;1.70;;
3274;SDS011;1649;53.672;10.064;2022-07-17T11:08:42;3.90;;;1.10;;
3274;SDS011;1649;53.672;10.064;2022-07-17T11:11:09;5.03;;;1.30;;
3274;SDS011;1649;53.672;10.064;2022-07-17T11:13:34;4.40;;;1.30;;
3274;SDS011;1649;53.672;10.064;2022-07-17T11:16:00;6.33;;;1.40;;
3274;SDS011;1649;53.672;10.064;2022-07-17T11:18:25;5.27;;;1.20;;
3274;SDS011;1649;53.672;10.064;2022-07-17T11:20:58;3.70;;;1.23;;
3274;SDS011;1649;53.672;10.064;2022-07-17T11:23:27;5.47;;;1.30;;
3274;SDS011;1649;53.672;10.064;2022-07-17T11:25:56;3.50;;;1.30;;
3274;SDS011;1649;53.672;10.064;2022-07-17T11:28:28;4.10;;;1.13;;
3274;SDS011;1649;53.672;10.064;2022-07-17T11:30:59;4.73;;;1.30;;
3274;SDS011;1649;53.672;10.064;2022-07-17T11:33:25;4.73;;;1.40;;
3274;SDS011;1649;53.672;10.064;2022-07-17T11:35:51;4.17;;;1.20;;
3274;SDS011;1649;53.672;10.064;2022-07-17T11:38:23;4.73;;;1.30;;
3274;SDS011;1649;53.672;10.064;2022-07-17T11:40:49;4.40;;;1.27;;
3274;SDS011;1649;53.672;10.064;2022-07-17T11:43:15;4.87;;;1.47;;
3274;SDS011;1649;53.672;10.064;2022-07-17T11:45:41;5.10;;;1.23;;
3274;SDS011;1649;53.672;10.064;2022-07-17T11:48:07;3.80;;;1.20;;
3274;SDS011;1649;53.672;10.064;2022-07-17T11:50:33;5.00;;;1.53;;
3274;SDS011;1649;53.672;10.064;2022-07-17T11:53:02;3.50;;;1.30;;
3274;SDS011;1649;53.672;10.064;2022-07-17T11:55:36;4.80;;;1.37;;
3274;SDS011;1649;53.672;10.064;2022-07-17T11:58:03;3.10;;;1.00;;
3274;SDS011;1649;53.672;10.064;2022-07-17T12:00:28;4.70;;;1.23;;
3274;SDS011;1649;53.672;10.064;2022-07-17T12:03:01;4.50;;;1.40;;
3274;SDS011;1649;53.672;10.064;2022-07-17T12:05:28;4.00;;;1.40;;
3274;SDS011;1649;53.672;10.064;2022-07-17T12:07:55;6.03;;;1.30;;
3274;SDS011;1649;53.672;10.064;2022-07-17T12:10:22;3.90;;;1.40;;
3274;SDS011;1649;53.672;10.064;2022-07-17T12:12:59;3.97;;;1.33;;
3274;SDS011;1649;53.672;10.064;2022-07-17T12:15:33;5.30;;;1.70;;
3274;SDS011;1649;53.672;10.064;2022-07-17T12:18:07;4.07;;;1.20;;
3274;SDS011;1649;53.672;10.064;2022-07-17T12:20:46;6.53;;;1.40;;
3274;SDS011;1649;53.672;10.064;2022-07-17T12:26:03;3.93;;;1.30;;
3274;SDS011;1649;53.672;10.064;2022-07-17T12:28:29;5.77;;;1.50;;
3274;SDS011;1649;53.672;10.064;2022-07-17T12:30:55;5.73;;;1.60;;
3274;SDS011;1649;53.672;10.064;2022-07-17T12:33:20;4.43;;;1.50;;
3274;SDS011;1649;53.672;10.064;2022-07-17T12:35:46;4.50;;;1.50;;
3274;SDS011;1649;53.672;10.064;2022-07-17T12:38:11;6.53;;;1.47;;
3274;SDS011;1649;53.672;10.064;2022-07-17T12:40:37;4.30;;;1.20;;
3274;SDS011;1649;53.672;10.064;2022-07-17T12:43:02;3.87;;;1.20;;
3274;SDS011;1649;53.672;10.064;2022-07-17T12:45:28;3.80;;;1.10;;
3274;SDS011;1649;53.672;10.064;2022-07-17T12:47:53;4.20;;;1.40;;
3274;SDS011;1649;53.672;10.064;2022-07-17T12:50:19;4.43;;;1.20;;
3274;SDS011;1649;53.672;10.064;2022-07-17T12:52:44;4.60;;;1.50;;
3274;SDS011;1649;53.672;10.064;2022-07-17T12:55:10;7.90;;;1.80;;
3274;SDS011;1649;53.672;10.064;2022-07-17T12:57:36;3.90;;;1.40;;
3274;SDS011;1649;53.672;10.064;2022-07-17T13:00:02;6.03;;;1.80;;
3274;SDS011;1649;53.672;10.064;2022-07-17T13:02:28;7.13;;;1.20;;
3274;SDS011;1649;53.672;10.064;2022-07-17T13:04:54;4.10;;;1.30;;
3274;SDS011;1649;53.672;10.064;2022-07-17T13:07:19;3.40;;;1.30;;
3274;SDS011;1649;53.672;10.064;2022-07-17T13:09:45;5.03;;;1.30;;
3274;SDS011;1649;53.672;10.064;2022-07-17T13:12:10;4.70;;;1.33;;
3274;SDS011;1649;53.672;10.064;2022-07-17T13:14:36;4.60;;;1.27;;
3274;SDS011;1649;53.672;10.064;2022-07-17T13:17:01;5.33;;;1.50;;
3274;SDS011;1649;53.672;10.064;2022-07-17T13:19:27;3.80;;;1.30;;
3274;SDS011;1649;53.672;10.064;2022-07-17T13:21:53;3.80;;;1.33;;
3274;SDS011;1649;53.672;10.064;2022-07-17T13:24:19;4.83;;;1.40;;
3274;SDS011;1649;53.672;10.064;2022-07-17T13:26:45;5.20;;;1.37;;
3274;SDS011;1649;53.672;10.064;2022-07-17T13:29:11;4.00;;;1.20;;
3274;SDS011;1649;53.672;10.064;2022-07-17T13:31:37;4.63;;;1.60;;
3274;SDS011;1649;53.672;10.064;2022-07-17T13:34:02;4.57;;;1.33;;
3274;SDS011;1649;53.672;10.064;2022-07-17T13:36:28;6.20;;;1.70;;
3274;SDS011;1649;53.672;10.064;2022-07-17T13:38:54;5.03;;;1.80;;
3274;SDS011;1649;53.672;10.064;2022-07-17T13:41:19;7.47;;;2.37;;
3274;SDS011;1649;53.672;10.064;2022-07-17T13:43:44;6.53;;;3.30;;
3274;SDS011;1649;53.672;10.064;2022-07-17T13:46:10;4.20;;;1.17;;
3274;SDS011;1649;53.672;10.064;2022-07-17T13:48:36;4.20;;;1.67;;
3274;SDS011;1649;53.672;10.064;2022-07-17T13:51:01;4.03;;;1.97;;
3274;SDS011;1649;53.672;10.064;2022-07-17T13:53:27;5.20;;;1.50;;
3274;SDS011;1649;53.672;10.064;2022-07-17T13:55:54;6.73;;;1.60;;
3274;SDS011;1649;53.672;10.064;2022-07-17T13:58:19;5.20;;;1.63;;
3274;SDS011;1649;53.672;10.064;2022-07-17T14:00:45;4.33;;;1.60;;
3274;SDS011;1649;53.672;10.064;2022-07-17T14:03:10;5.40;;;1.57;;
3274;SDS011;1649;53.672;10.064;2022-07-17T14:05:36;4.43;;;1.70;;
3274;SDS011;1649;53.672;10.064;2022-07-17T14:08:02;4.20;;;1.60;;
3274;SDS011;1649;53.672;10.064;2022-07-17T14:10:27;4.13;;;1.40;;
3274;SDS011;1649;53.672;10.064;2022-07-17T14:12:53;5.03;;;1.70;;
3274;SDS011;1649;53.672;10.064;2022-07-17T14:15:18;5.03;;;1.93;;
3274;SDS011;1649;53.672;10.064;2022-07-17T14:17:44;4.93;;;1.80;;
3274;SDS011;1649;53.672;10.064;2022-07-17T14:20:09;3.80;;;1.60;;
3274;SDS011;1649;53.672;10.064;2022-07-17T14:22:36;5.27;;;2.10;;
3274;SDS011;1649;53.672;10.064;2022-07-17T14:25:02;4.37;;;1.60;;
3274;SDS011;1649;53.672;10.064;2022-07-17T14:27:27;5.10;;;1.97;;
3274;SDS011;1649;53.672;10.064;2022-07-17T14:29:53;3.60;;;1.60;;
3274;SDS011;1649;53.672;10.064;2022-07-17T14:32:18;4.07;;;1.67;;
3274;SDS011;1649;53.672;10.064;2022-07-17T14:34:44;5.53;;;1.97;;
3274;SDS011;1649;53.672;10.064;2022-07-17T14:37:09;4.00;;;1.60;;
3274;SDS011;1649;53.672;10.064;2022-07-17T14:39:35;4.90;;;1.77;;
3274;SDS011;1649;53.672;10.064;2022-07-17T14:42:01;4.57;;;1.90;;
3274;SDS011;1649;53.672;10.064;2022-07-17T14:44:27;4.50;;;2.03;;
3274;SDS011;1649;53.672;10.064;2022-07-17T14:46:53;6.73;;;2.10;;
3274;SDS011;1649;53.672;10.064;2022-07-17T14:49:18;7.73;;;2.23;;
3274;SDS011;1649;53.672;10.064;2022-07-17T14:51:44;4.97;;;2.67;;
3274;SDS011;1649;53.672;10.064;2022-07-17T14:54:09;6.10;;;2.00;;
3274;SDS011;1649;53.672;10.064;2022-07-17T14:56:35;4.73;;;1.90;;
3274;SDS011;1649;53.672;10.064;2022-07-17T14:59:01;4.67;;;2.00;;
3274;SDS011;1649;53.672;10.064;2022-07-17T15:01:26;4.63;;;2.17;;
3274;SDS011;1649;53.672;10.064;2022-07-17T15:03:52;3.90;;;1.60;;
3274;SDS011;1649;53.672;10.064;2022-07-17T15:06:17;4.60;;;1.97;;
3274;SDS011;1649;53.672;10.064;2022-07-17T15:08:43;6.47;;;2.20;;
3274;SDS011;1649;53.672;10.064;2022-07-17T15:11:08;6.20;;;2.30;;
3274;SDS011;1649;53.672;10.064;2022-07-17T15:13:34;7.00;;;2.37;;
3274;SDS011;1649;53.672;10.064;2022-07-17T15:15:59;5.57;;;2.40;;
3274;SDS011;1649;53.672;10.064;2022-07-17T15:18:25;5.60;;;2.23;;